Main page
METAR-TAF:

METAR-TAF

Airports :

Isfahan International Airport

Esfahān, Iran

latitude: 32-28N, longitude: 051-43E, elevation: 1590 m

Current weather observation

The report was made 34 minutes ago, at 19:00 UTC
Calm wind
Temperature 26°C
Humidity 11%
Pressure 1013 hPa
Visibility 10 km or more
no clouds below 1500 m and no cumulonimbus

METAR: OIFM 251900Z 00000KT CAVOK 26/M07 Q1013 A2992

Time: 00:04 (19:34 UTC)

Forecast

The report was made 2 hours and 4 minutes ago, at 17:30 UTC
Forecast valid from 25 at 18 UTC to 26 at 24 UTC
Wind 8 kt from the West
Visibility: 8000 m
Temporary
from 26 at 10 UTC to 26 at 17 UTC
Wind 18 kt from the Southwest
Visibility: 5000 m
sand

TAF: OIFM 251730Z 2518/2624 27008KT 8000 NSC TEMPO 2610/2617 22018KT 5000 SA

Weather observations and forecasts of more than 4000 airports (METAR and TAF reports).

The available stations are represented by yellow and red dots on the map.

Hover mouse over dot to see the name of the station.

Then click to see weather observations and forecasts.

To change the map : click on the green buttons with a black cross to zoom in, on the green button with a dash to zoom out, or on the green arrows for adjacent maps.


METAR-TAF: